createdAt,value
2019-05-25T00:01:00.777Z,3.33
2019-05-25T00:03:28.991Z,3.22
2019-05-25T00:05:57.214Z,3.05
2019-05-25T00:08:25.424Z,3.25
2019-05-25T00:10:53.665Z,3.40
2019-05-25T00:13:21.875Z,2.72
2019-05-25T00:15:50.095Z,2.75
2019-05-25T00:18:18.352Z,3.58
2019-05-25T00:20:46.560Z,3.37
2019-05-25T00:23:14.803Z,3.20
2019-05-25T00:25:43.039Z,3.17
2019-05-25T00:28:11.281Z,3.42
2019-05-25T00:30:39.495Z,3.25
2019-05-25T00:33:07.737Z,2.90
2019-05-25T00:35:35.975Z,3.60
2019-05-25T00:38:04.198Z,3.92
2019-05-25T00:40:32.420Z,3.95
2019-05-25T00:43:00.652Z,4.20
2019-05-25T00:45:28.870Z,4.08
2019-05-25T00:47:57.095Z,4.37
2019-05-25T00:50:25.316Z,4.35
2019-05-25T00:52:53.549Z,4.37
2019-05-25T00:55:21.764Z,4.50
2019-05-25T00:57:50.357Z,4.65
2019-05-25T01:00:18.582Z,5.05
2019-05-25T01:02:46.819Z,4.90
2019-05-25T01:05:15.132Z,4.85
2019-05-25T01:07:43.353Z,4.70
2019-05-25T01:10:12.242Z,5.22
2019-05-25T01:12:40.440Z,5.17
2019-05-25T01:15:08.649Z,4.75
2019-05-25T01:17:36.889Z,4.58
2019-05-25T01:20:07.874Z,4.85
2019-05-25T01:22:36.197Z,5.08
2019-05-25T01:25:05.387Z,5.40
2019-05-25T01:27:33.630Z,5.78
2019-05-25T01:30:01.848Z,4.67
2019-05-25T01:32:30.065Z,4.90
2019-05-25T01:34:58.319Z,4.30
2019-05-25T01:37:26.528Z,4.22
2019-05-25T01:39:54.852Z,4.30
2019-05-25T01:42:23.080Z,4.75
2019-05-25T01:44:51.356Z,4.35
2019-05-25T01:47:19.581Z,4.60
2019-05-25T01:49:47.883Z,5.33
2019-05-25T01:52:16.111Z,4.12
2019-05-25T01:54:58.902Z,4.47
2019-05-25T01:57:14.329Z,5.03
2019-05-25T01:59:42.523Z,5.17
2019-05-25T02:02:10.762Z,4.45
2019-05-25T02:04:38.991Z,4.33
2019-05-25T02:07:07.250Z,4.35
2019-05-25T02:09:35.488Z,4.62
2019-05-25T02:12:03.701Z,4.42
2019-05-25T02:14:31.928Z,4.57
2019-05-25T02:17:00.152Z,4.58
2019-05-25T02:19:28.370Z,5.17
2019-05-25T02:21:56.611Z,4.40
2019-05-25T02:24:24.840Z,5.12
2019-05-25T02:26:53.073Z,5.00
2019-05-25T02:29:21.308Z,4.62
2019-05-25T02:31:49.564Z,4.58
2019-05-25T02:34:17.865Z,4.70
2019-05-25T02:36:46.121Z,4.67
2019-05-25T02:39:14.368Z,4.95
2019-05-25T02:41:42.588Z,5.05
2019-05-25T02:44:10.789Z,5.30
2019-05-25T02:46:39.049Z,5.28
2019-05-25T02:49:07.270Z,5.40
2019-05-25T02:51:35.567Z,5.12
2019-05-25T02:54:03.844Z,4.92
2019-05-25T02:56:32.081Z,5.17
2019-05-25T02:59:00.329Z,5.05
2019-05-25T03:01:28.548Z,4.87
2019-05-25T03:03:56.784Z,4.28
2019-05-25T03:06:24.999Z,4.85
2019-05-25T03:08:53.407Z,5.25
2019-05-25T03:11:21.631Z,5.22
2019-05-25T03:13:49.875Z,5.40
2019-05-25T03:16:18.178Z,5.62
2019-05-25T03:18:46.515Z,4.80
2019-05-25T03:21:14.782Z,4.80
2019-05-25T03:23:43.003Z,5.10
2019-05-25T03:26:11.238Z,5.00
2019-05-25T03:28:39.457Z,5.10
2019-05-25T03:31:07.692Z,5.60
2019-05-25T03:33:35.909Z,5.17
2019-05-25T03:36:04.214Z,5.53
2019-05-25T03:38:32.411Z,5.17
2019-05-25T03:41:00.687Z,5.45
2019-05-25T03:43:28.906Z,5.75
2019-05-25T03:45:57.156Z,5.65
2019-05-25T03:48:25.370Z,5.80
2019-05-25T03:50:53.599Z,5.80
2019-05-25T03:53:21.862Z,5.90
2019-05-25T03:56:04.673Z,5.97
2019-05-25T03:58:20.027Z,5.25
2019-05-25T04:00:48.258Z,7.23
2019-05-25T04:03:16.505Z,5.67
2019-05-25T04:05:44.764Z,5.72
2019-05-25T04:08:12.993Z,6.22
2019-05-25T04:10:41.251Z,5.90
2019-05-25T04:13:09.462Z,5.70
2019-05-25T04:15:37.712Z,6.25
2019-05-25T04:18:05.945Z,4.90
2019-05-25T04:20:34.256Z,4.63
2019-05-25T04:23:02.463Z,5.65
2019-05-25T04:25:30.702Z,5.20
2019-05-25T04:27:59.018Z,5.30
2019-05-25T04:30:27.229Z,5.37
2019-05-25T04:32:55.431Z,5.78
2019-05-25T04:35:23.646Z,5.03
2019-05-25T04:37:51.875Z,5.67
2019-05-25T04:40:22.988Z,6.00
2019-05-25T04:42:50.053Z,6.87
2019-05-25T04:45:18.301Z,6.12
2019-05-25T04:47:46.513Z,5.97
2019-05-25T04:50:14.757Z,6.50
2019-05-25T04:52:42.964Z,5.92
2019-05-25T04:55:11.196Z,5.78
2019-05-25T04:57:39.413Z,6.85
2019-05-25T05:00:08.441Z,6.70
2019-05-25T05:02:36.654Z,5.57
2019-05-25T05:05:05.684Z,5.42
2019-05-25T05:07:33.907Z,5.45
2019-05-25T05:10:03.394Z,5.85
2019-05-25T05:12:31.735Z,5.08
2019-05-25T05:14:59.968Z,4.80
2019-05-25T05:17:28.176Z,4.80
2019-05-25T05:19:56.393Z,4.95
2019-05-25T05:22:24.699Z,4.50
2019-05-25T05:24:52.871Z,4.70
2019-05-25T05:27:21.142Z,4.00
2019-05-25T05:29:49.382Z,4.78
2019-05-25T05:32:27.181Z,4.60
2019-05-25T05:34:47.542Z,4.65
2019-05-25T05:37:15.757Z,5.22
2019-05-25T05:39:44.036Z,5.22
2019-05-25T05:42:14.674Z,4.60
2019-05-25T05:44:42.899Z,5.40
2019-05-25T05:47:13.154Z,5.03
2019-05-25T05:49:41.404Z,5.05
2019-05-25T05:52:09.642Z,4.30
2019-05-25T05:54:37.906Z,4.65
2019-05-25T05:57:12.326Z,4.75
2019-05-25T05:59:36.179Z,4.72
2019-05-25T06:02:04.411Z,4.40
2019-05-25T06:04:32.632Z,5.20
2019-05-25T06:07:00.934Z,5.10
2019-05-25T06:09:29.102Z,5.47
2019-05-25T06:11:57.365Z,4.90
2019-05-25T06:14:25.651Z,4.92
2019-05-25T06:16:54.075Z,5.47
2019-05-25T06:19:22.350Z,5.28
2019-05-25T06:21:50.768Z,5.37
2019-05-25T06:24:19.612Z,4.90
2019-05-25T06:26:47.825Z,4.97
2019-05-25T06:29:16.029Z,4.97
2019-05-25T06:31:44.260Z,4.85
2019-05-25T06:34:12.496Z,4.30
2019-05-25T06:36:40.720Z,4.45
2019-05-25T06:39:08.980Z,4.90
2019-05-25T06:41:37.194Z,4.87
2019-05-25T06:44:05.684Z,4.70
2019-05-25T06:46:33.899Z,4.90
2019-05-25T06:49:02.158Z,4.70
2019-05-25T06:51:30.350Z,5.33
2019-05-25T06:53:58.570Z,5.10
2019-05-25T06:56:26.798Z,4.90
2019-05-25T06:58:55.010Z,4.87
2019-05-25T07:01:23.254Z,4.60
2019-05-25T07:03:51.593Z,4.90
2019-05-25T07:06:20.006Z,4.60
2019-05-25T07:08:48.231Z,4.47
2019-05-25T07:11:16.444Z,4.20
2019-05-25T07:13:44.657Z,3.60
2019-05-25T07:16:12.886Z,4.03
2019-05-25T07:18:41.101Z,3.75
2019-05-25T07:21:09.314Z,3.70
2019-05-25T07:23:37.623Z,3.90
2019-05-25T07:26:05.820Z,3.50
2019-05-25T07:28:34.044Z,2.95
2019-05-25T07:31:02.339Z,2.98
2019-05-25T07:33:30.560Z,2.85
2019-05-25T07:35:58.810Z,2.85
2019-05-25T07:38:27.010Z,2.30
2019-05-25T07:40:55.220Z,2.40
2019-05-25T07:43:23.438Z,2.10
2019-05-25T07:45:51.677Z,2.10
2019-05-25T07:48:19.907Z,2.10
2019-05-25T07:50:48.116Z,2.25
2019-05-25T07:53:16.405Z,2.45
2019-05-25T07:55:44.602Z,2.10
2019-05-25T07:58:17.482Z,2.50
2019-05-25T08:00:42.797Z,2.12
2019-05-25T08:03:11.005Z,1.92
2019-05-25T08:05:39.233Z,1.97
2019-05-25T08:08:07.462Z,1.67
2019-05-25T08:10:35.646Z,1.80
2019-05-25T08:13:03.868Z,1.75
2019-05-25T08:15:32.075Z,1.75
2019-05-25T08:18:00.394Z,2.15
2019-05-25T08:20:28.594Z,1.50
2019-05-25T08:22:56.812Z,1.40
2019-05-25T08:25:25.099Z,2.15
2019-05-25T08:27:53.319Z,2.65
2019-05-25T08:30:21.823Z,2.05
2019-05-25T08:32:50.044Z,2.33
2019-05-25T08:35:18.261Z,1.80
2019-05-25T08:37:46.507Z,2.05
2019-05-25T08:40:14.811Z,1.95
2019-05-25T08:42:42.977Z,2.20
2019-05-25T08:45:11.226Z,2.05
2019-05-25T08:47:39.515Z,2.17
2019-05-25T08:50:08.198Z,1.87
2019-05-25T08:52:36.766Z,2.20
2019-05-25T08:55:06.717Z,2.72
2019-05-25T08:57:34.937Z,2.27
2019-05-25T09:00:04.350Z,2.00
2019-05-25T09:02:32.662Z,2.13
2019-05-25T09:05:00.909Z,1.98
2019-05-25T09:07:29.283Z,2.55
2019-05-25T09:09:57.518Z,2.27
2019-05-25T09:12:25.736Z,2.40
2019-05-25T09:14:54.004Z,2.02
2019-05-25T09:17:22.190Z,1.90
2019-05-25T09:19:52.177Z,1.90
2019-05-25T09:22:20.410Z,1.80
2019-05-25T09:24:48.628Z,2.00
2019-05-25T09:27:16.859Z,1.70
2019-05-25T09:29:45.092Z,1.62
2019-05-25T09:32:13.611Z,1.82
2019-05-25T09:34:41.800Z,2.08
2019-05-25T09:37:10.108Z,1.95
2019-05-25T09:39:38.303Z,2.17
2019-05-25T09:42:06.526Z,1.92
2019-05-25T09:44:34.740Z,2.57
2019-05-25T09:47:02.951Z,2.02
2019-05-25T09:49:31.185Z,1.98
2019-05-25T09:51:59.385Z,1.85
2019-05-25T09:54:27.591Z,1.32
2019-05-25T09:56:55.840Z,1.50
2019-05-25T09:59:24.045Z,1.20
2019-05-25T10:01:52.270Z,1.27
2019-05-25T10:04:20.475Z,1.10
2019-05-25T10:06:48.731Z,1.17
2019-05-25T10:09:16.956Z,1.52
2019-05-25T10:11:45.171Z,1.50
2019-05-25T10:14:13.412Z,1.02
2019-05-25T10:16:41.665Z,1.62
2019-05-25T10:19:09.903Z,1.40
2019-05-25T10:21:38.139Z,1.50
2019-05-25T10:24:06.374Z,1.50
2019-05-25T10:26:34.604Z,1.90
2019-05-25T10:29:02.822Z,1.70
2019-05-25T10:31:31.033Z,1.95
2019-05-25T10:33:59.385Z,1.70
2019-05-25T10:36:27.592Z,2.20
2019-05-25T10:38:55.830Z,2.20
2019-05-25T10:41:26.750Z,1.80
2019-05-25T10:43:54.972Z,2.08
2019-05-25T10:46:23.226Z,1.98
2019-05-25T10:48:51.418Z,1.80
2019-05-25T10:51:19.743Z,2.40
2019-05-25T10:53:47.954Z,2.15
2019-05-25T10:56:16.157Z,2.15
2019-05-25T10:58:44.410Z,2.52
2019-05-25T11:01:12.667Z,2.58
2019-05-25T11:03:40.872Z,2.80
2019-05-25T11:06:09.094Z,2.90
2019-05-25T11:08:37.324Z,3.50
2019-05-25T11:11:05.580Z,3.65
2019-05-25T11:13:33.800Z,2.67
2019-05-25T11:16:02.038Z,2.30
2019-05-25T11:18:30.254Z,2.23
2019-05-25T11:20:58.842Z,2.60
2019-05-25T11:23:27.083Z,3.02
2019-05-25T11:25:55.301Z,2.60
2019-05-25T11:28:23.509Z,2.10
2019-05-25T11:30:51.747Z,2.25
2019-05-25T11:33:19.962Z,2.40
2019-05-25T11:35:48.235Z,2.65
2019-05-25T11:38:16.397Z,2.47
2019-05-25T11:40:44.702Z,2.22
2019-05-25T11:43:12.983Z,2.17
2019-05-25T11:45:41.182Z,2.33
2019-05-25T11:48:09.388Z,2.75
2019-05-25T11:50:37.612Z,3.00
2019-05-25T11:53:06.185Z,2.85
2019-05-25T11:55:34.555Z,3.35
2019-05-25T11:58:02.786Z,2.77
2019-05-25T12:00:31.453Z,3.02
2019-05-25T12:02:59.681Z,2.55
2019-05-25T12:05:27.906Z,2.10
2019-05-25T12:07:56.145Z,2.50
2019-05-25T12:10:26.045Z,2.50
2019-05-25T12:12:54.306Z,2.30
2019-05-25T12:15:22.496Z,2.90
2019-05-25T12:17:50.722Z,3.12
2019-05-25T12:20:19.137Z,3.08
2019-05-25T12:22:47.343Z,2.83
2019-05-25T12:25:15.540Z,3.70
2019-05-25T12:27:43.760Z,3.00
2019-05-25T12:30:13.786Z,2.80
2019-05-25T12:32:42.006Z,3.30
2019-05-25T12:35:10.221Z,3.33
2019-05-25T12:37:38.458Z,3.58
2019-05-25T12:40:07.042Z,3.30
2019-05-25T12:42:35.271Z,3.90
2019-05-25T12:45:03.975Z,3.80
2019-05-25T12:47:32.205Z,3.57
2019-05-25T12:50:00.382Z,4.33
2019-05-25T12:52:28.598Z,3.87
2019-05-25T12:54:58.447Z,3.25
2019-05-25T12:57:26.659Z,2.95
2019-05-25T12:59:54.921Z,2.95
2019-05-25T13:02:23.117Z,2.95
2019-05-25T13:04:51.322Z,2.40
2019-05-25T13:07:19.678Z,2.58
2019-05-25T13:09:47.899Z,3.00
2019-05-25T13:12:16.225Z,3.08
2019-05-25T13:14:44.442Z,3.10
2019-05-25T13:17:12.669Z,2.67
2019-05-25T13:19:40.885Z,3.47
2019-05-25T13:22:09.358Z,3.00
2019-05-25T13:24:37.699Z,3.35
2019-05-25T13:27:05.889Z,3.47
2019-05-25T13:29:34.222Z,3.83
2019-05-25T13:32:02.442Z,3.02
2019-05-25T13:34:31.122Z,3.15
2019-05-25T13:37:01.735Z,3.35
2019-05-25T13:39:29.307Z,3.57
2019-05-25T13:41:57.533Z,3.10
2019-05-25T13:44:26.281Z,2.30
2019-05-25T13:46:55.300Z,2.98
2019-05-25T13:49:23.501Z,2.87
2019-05-25T13:51:51.759Z,2.65
2019-05-25T13:54:19.953Z,2.60
2019-05-25T13:56:48.290Z,3.40
2019-05-25T13:59:16.511Z,3.05
2019-05-25T14:01:44.760Z,3.17
2019-05-25T14:04:13.003Z,3.17
2019-05-25T14:06:41.238Z,2.83
2019-05-25T14:09:09.454Z,2.72
2019-05-25T14:11:37.661Z,2.67
2019-05-25T14:14:06.046Z,2.62
2019-05-25T14:16:34.290Z,3.05
2019-05-25T14:19:02.552Z,2.60
2019-05-25T14:21:30.786Z,2.65
2019-05-25T14:23:58.938Z,2.55
2019-05-25T14:26:27.209Z,2.27
2019-05-25T14:28:55.531Z,2.50
2019-05-25T14:31:25.357Z,2.30
2019-05-25T14:33:53.734Z,2.40
2019-05-25T14:36:22.466Z,2.70
2019-05-25T14:38:50.764Z,2.55
2019-05-25T14:41:18.976Z,2.72
2019-05-25T14:43:47.183Z,2.40
2019-05-25T14:46:27.407Z,2.70
2019-05-25T14:48:45.363Z,2.50
2019-05-25T14:51:13.592Z,2.90
2019-05-25T14:53:41.791Z,2.55
2019-05-25T14:56:10.005Z,2.80
2019-05-25T14:58:38.647Z,2.40
2019-05-25T15:01:06.973Z,2.35
2019-05-25T15:03:35.198Z,2.52
2019-05-25T15:06:03.415Z,2.60
2019-05-25T15:08:31.647Z,2.20
2019-05-25T15:10:59.847Z,2.50
2019-05-25T15:13:28.072Z,2.30
2019-05-25T15:15:56.279Z,2.37
2019-05-25T15:18:24.516Z,2.30
2019-05-25T15:20:52.714Z,2.20
2019-05-25T15:23:21.255Z,2.34
2019-05-25T15:25:49.473Z,3.02
2019-05-25T15:28:17.676Z,2.30
2019-05-25T15:30:46.027Z,2.50
2019-05-25T15:33:14.265Z,2.20
2019-05-25T15:35:42.556Z,2.30
2019-05-25T15:38:10.866Z,2.58
2019-05-25T15:40:39.256Z,2.20
2019-05-25T15:43:07.504Z,2.27
2019-05-25T15:45:35.826Z,2.30
2019-05-25T15:48:04.142Z,2.12
2019-05-25T15:50:32.353Z,2.10
2019-05-25T15:53:00.570Z,2.40
2019-05-25T15:55:28.783Z,2.45
2019-05-25T15:57:57.003Z,2.27
2019-05-25T16:00:34.248Z,2.40
2019-05-25T16:03:02.481Z,2.08
2019-05-25T16:05:30.767Z,2.30
2019-05-25T16:07:59.002Z,2.27
2019-05-25T16:10:27.213Z,2.15
2019-05-25T16:12:55.431Z,2.40
2019-05-25T16:15:27.624Z,2.00
2019-05-25T16:17:55.813Z,2.65
2019-05-25T16:20:24.036Z,2.25
2019-05-25T16:22:52.254Z,2.20
2019-05-25T16:25:20.451Z,2.50
2019-05-25T16:27:48.664Z,2.27
2019-05-25T16:30:16.926Z,1.92
2019-05-25T16:33:10.935Z,2.52
2019-05-25T16:35:15.164Z,2.45
2019-05-25T16:37:43.666Z,2.50
2019-05-25T16:40:12.072Z,2.42
2019-05-25T16:42:40.309Z,2.30
2019-05-25T16:45:09.862Z,2.60
2019-05-25T16:47:38.091Z,2.15
2019-05-25T16:50:07.938Z,2.30
2019-05-25T16:52:36.157Z,2.20
2019-05-25T16:55:06.221Z,2.27
2019-05-25T16:57:34.440Z,2.40
2019-05-25T17:00:02.752Z,2.08
2019-05-25T17:02:30.961Z,2.50
2019-05-25T17:04:59.209Z,2.80
2019-05-25T17:07:27.432Z,2.70
2019-05-25T17:09:55.671Z,2.58
2019-05-25T17:12:23.919Z,1.95
2019-05-25T17:14:52.155Z,2.22
2019-05-25T17:17:21.484Z,1.70
2019-05-25T17:19:49.688Z,1.95
2019-05-25T17:22:17.907Z,2.12
2019-05-25T17:24:46.142Z,2.40
2019-05-25T17:27:14.352Z,2.90
2019-05-25T17:29:42.653Z,2.25
2019-05-25T17:32:10.849Z,2.55
2019-05-25T17:34:39.065Z,2.30
2019-05-25T17:37:07.302Z,2.17
2019-05-25T17:39:35.503Z,2.25
2019-05-25T17:42:04.157Z,2.47
2019-05-25T17:44:32.382Z,2.90
2019-05-25T17:47:00.628Z,2.10
2019-05-25T17:49:28.830Z,2.33
2019-05-25T17:51:57.127Z,3.30
2019-05-25T17:54:25.360Z,2.65
2019-05-25T17:56:53.545Z,2.80
2019-05-25T17:59:21.815Z,2.37
2019-05-25T18:01:50.033Z,2.40
2019-05-25T18:04:18.247Z,3.33
2019-05-25T18:06:46.466Z,3.02
2019-05-25T18:09:14.694Z,2.72
2019-05-25T18:11:42.912Z,2.52
2019-05-25T18:14:11.123Z,2.17
2019-05-25T18:16:39.383Z,2.33
2019-05-25T18:19:07.660Z,2.80
2019-05-25T18:21:35.865Z,2.75
2019-05-25T18:24:04.255Z,2.77
2019-05-25T18:26:32.608Z,2.20
2019-05-25T18:29:00.889Z,2.58
2019-05-25T18:31:29.101Z,2.30
2019-05-25T18:33:57.358Z,2.20
2019-05-25T18:36:25.570Z,2.58
2019-05-25T18:38:53.790Z,2.40
2019-05-25T18:41:22.002Z,2.35
2019-05-25T18:43:50.229Z,2.17
2019-05-25T18:46:18.427Z,4.50
2019-05-25T18:48:46.632Z,2.80
2019-05-25T18:51:14.865Z,2.58
2019-05-25T18:53:43.064Z,2.27
2019-05-25T18:56:11.302Z,2.15
2019-05-25T18:58:39.519Z,2.40
2019-05-25T19:01:07.739Z,2.70
2019-05-25T19:03:35.962Z,2.37
2019-05-25T19:06:04.163Z,2.45
2019-05-25T19:08:32.480Z,2.30
2019-05-25T19:11:00.714Z,2.20
2019-05-25T19:13:28.945Z,2.92
2019-05-25T19:15:57.165Z,2.83
2019-05-25T19:18:25.381Z,2.53
2019-05-25T19:20:53.602Z,2.90
2019-05-25T19:23:21.863Z,3.00
2019-05-25T19:25:50.075Z,2.20
2019-05-25T19:28:18.341Z,2.30
2019-05-25T19:30:46.517Z,2.98
2019-05-25T19:33:14.734Z,2.58
2019-05-25T19:35:42.955Z,3.45
2019-05-25T19:38:11.240Z,2.90
2019-05-25T19:40:39.474Z,2.40
2019-05-25T19:43:07.704Z,2.22
2019-05-25T19:45:35.928Z,2.50
2019-05-25T19:48:04.200Z,3.10
2019-05-25T19:50:32.531Z,3.50
2019-05-25T19:53:00.803Z,3.40
2019-05-25T19:55:29.045Z,3.52
2019-05-25T19:57:57.283Z,2.87
2019-05-25T20:00:25.495Z,2.65
2019-05-25T20:02:53.807Z,3.25
2019-05-25T20:05:22.160Z,2.67
2019-05-25T20:07:50.381Z,3.10
2019-05-25T20:10:18.582Z,2.70
2019-05-25T20:12:46.800Z,2.80
2019-05-25T20:15:15.108Z,3.10
2019-05-25T20:17:43.325Z,3.67
2019-05-25T20:20:11.550Z,2.87
2019-05-25T20:22:39.754Z,2.50
2019-05-25T20:25:07.969Z,2.62
2019-05-25T20:27:36.196Z,2.92
2019-05-25T20:30:08.730Z,2.77
2019-05-25T20:32:37.003Z,2.80
2019-05-25T20:35:06.093Z,3.40
2019-05-25T20:37:34.315Z,3.72
2019-05-25T20:40:02.597Z,3.70
2019-05-25T20:42:30.826Z,3.00
2019-05-25T20:44:59.036Z,3.72
2019-05-25T20:47:27.246Z,3.00
2019-05-25T20:49:55.456Z,2.30
2019-05-25T20:52:23.742Z,3.00
2019-05-25T20:54:51.946Z,2.52
2019-05-25T20:57:20.191Z,2.52
2019-05-25T20:59:48.400Z,2.37
2019-05-25T21:02:16.626Z,3.00
2019-05-25T21:04:44.848Z,2.50
2019-05-25T21:07:13.057Z,2.45
2019-05-25T21:09:41.266Z,2.70
2019-05-25T21:12:09.506Z,2.50
2019-05-25T21:14:37.711Z,2.20
2019-05-25T21:17:05.940Z,2.42
2019-05-25T21:19:34.151Z,2.60
2019-05-25T21:22:02.357Z,2.25
2019-05-25T21:24:30.594Z,2.50
2019-05-25T21:26:58.801Z,2.98
2019-05-25T21:29:27.011Z,2.63
2019-05-25T21:31:55.240Z,2.67
2019-05-25T21:34:23.519Z,2.50
2019-05-25T21:36:51.713Z,3.05
2019-05-25T21:39:19.945Z,2.27
2019-05-25T21:41:48.252Z,2.50
2019-05-25T21:44:16.419Z,3.47
2019-05-25T21:46:44.673Z,3.55
2019-05-25T21:49:12.902Z,2.67
2019-05-25T21:51:41.123Z,2.52
2019-05-25T21:54:09.341Z,2.85
2019-05-25T21:56:37.584Z,3.23
2019-05-25T21:59:05.829Z,2.40
2019-05-25T22:01:34.055Z,3.00
2019-05-25T22:04:02.267Z,2.75
2019-05-25T22:06:30.469Z,2.90
2019-05-25T22:08:58.718Z,3.62
2019-05-25T22:11:26.922Z,2.80
2019-05-25T22:13:55.171Z,3.10
2019-05-25T22:16:23.423Z,2.83
2019-05-25T22:18:51.685Z,3.17
2019-05-25T22:21:19.912Z,3.55
2019-05-25T22:23:48.149Z,3.50
2019-05-25T22:26:16.360Z,5.00
2019-05-25T22:28:46.963Z,3.98
2019-05-25T22:31:15.225Z,3.77
2019-05-25T22:33:43.449Z,3.67
2019-05-25T22:36:11.678Z,3.75
2019-05-25T22:38:39.899Z,3.67
2019-05-25T22:41:08.142Z,4.12
2019-05-25T22:43:36.342Z,3.87
2019-05-25T22:46:04.591Z,4.12
2019-05-25T22:48:32.810Z,4.70
2019-05-25T22:51:00.999Z,4.05
2019-05-25T22:53:29.256Z,4.22
2019-05-25T22:55:57.470Z,4.00
2019-05-25T22:58:25.688Z,4.55
2019-05-25T23:00:53.946Z,4.30
2019-05-25T23:03:22.155Z,4.47
2019-05-25T23:05:50.387Z,4.58
2019-05-25T23:08:18.648Z,5.05
2019-05-25T23:10:46.868Z,4.60
2019-05-25T23:13:15.313Z,4.47
2019-05-25T23:15:43.526Z,4.97
2019-05-25T23:18:11.839Z,4.80
2019-05-25T23:20:40.073Z,4.53
2019-05-25T23:23:08.357Z,4.60
2019-05-25T23:25:36.621Z,4.62
2019-05-25T23:28:04.884Z,5.30
2019-05-25T23:30:33.095Z,5.55
2019-05-25T23:33:01.346Z,5.00
2019-05-25T23:35:29.542Z,5.77
2019-05-25T23:37:57.771Z,5.20
2019-05-25T23:40:25.984Z,5.15
2019-05-25T23:42:54.234Z,5.47
2019-05-25T23:45:22.455Z,5.47
2019-05-25T23:47:50.867Z,5.62
2019-05-25T23:50:19.067Z,5.40
2019-05-25T23:52:47.297Z,5.10
2019-05-25T23:55:15.498Z,5.47
2019-05-25T23:57:43.758Z,5.33
